sensor_id;sensor_type;location;lat;lon;timestamp;temperature;humidity
69208;SHT31;70114;47.690;8.898;2023-05-29T00:01:24;15.32;50.55
69208;SHT31;70114;47.690;8.898;2023-05-29T00:03:51;15.55;50.05
69208;SHT31;70114;47.690;8.898;2023-05-29T00:06:16;15.67;49.98
69208;SHT31;70114;47.690;8.898;2023-05-29T00:08:43;15.81;49.56
69208;SHT31;70114;47.690;8.898;2023-05-29T00:11:08;15.89;48.89
69208;SHT31;70114;47.690;8.898;2023-05-29T00:13:34;15.77;49.43
69208;SHT31;70114;47.690;8.898;2023-05-29T00:15:59;15.50;49.85
69208;SHT31;70114;47.690;8.898;2023-05-29T00:18:26;15.74;49.20
69208;SHT31;70114;47.690;8.898;2023-05-29T00:20:52;15.82;49.32
69208;SHT31;70114;47.690;8.898;2023-05-29T00:23:18;15.57;49.80
69208;SHT31;70114;47.690;8.898;2023-05-29T00:25:44;15.43;49.72
69208;SHT31;70114;47.690;8.898;2023-05-29T00:28:09;15.14;50.74
69208;SHT31;70114;47.690;8.898;2023-05-29T00:30:37;14.96;51.33
69208;SHT31;70114;47.690;8.898;2023-05-29T00:33:02;15.07;51.15
69208;SHT31;70114;47.690;8.898;2023-05-29T00:35:27;15.06;50.89
69208;SHT31;70114;47.690;8.898;2023-05-29T00:37:53;15.30;50.29
69208;SHT31;70114;47.690;8.898;2023-05-29T00:40:18;15.24;50.56
69208;SHT31;70114;47.690;8.898;2023-05-29T00:42:44;15.41;50.53
69208;SHT31;70114;47.690;8.898;2023-05-29T00:45:09;15.34;50.58
69208;SHT31;70114;47.690;8.898;2023-05-29T00:47:36;15.46;50.56
69208;SHT31;70114;47.690;8.898;2023-05-29T00:50:02;15.54;50.11
69208;SHT31;70114;47.690;8.898;2023-05-29T00:52:29;15.58;50.12
69208;SHT31;70114;47.690;8.898;2023-05-29T00:54:54;15.60;50.19
69208;SHT31;70114;47.690;8.898;2023-05-29T00:57:20;15.60;50.14
69208;SHT31;70114;47.690;8.898;2023-05-29T00:59:47;15.58;50.28
69208;SHT31;70114;47.690;8.898;2023-05-29T01:02:14;15.61;50.40
69208;SHT31;70114;47.690;8.898;2023-05-29T01:04:42;15.61;50.31
69208;SHT31;70114;47.690;8.898;2023-05-29T01:07:09;15.62;50.26
69208;SHT31;70114;47.690;8.898;2023-05-29T01:09:35;15.58;50.57
69208;SHT31;70114;47.690;8.898;2023-05-29T01:17:33;15.53;51.05
69208;SHT31;70114;47.690;8.898;2023-05-29T01:23:15;15.49;50.92
69208;SHT31;70114;47.690;8.898;2023-05-29T01:26:39;14.93;52.20
69208;SHT31;70114;47.690;8.898;2023-05-29T01:29:07;15.02;52.51
69208;SHT31;70114;47.690;8.898;2023-05-29T01:31:36;15.14;52.14
69208;SHT31;70114;47.690;8.898;2023-05-29T01:34:02;15.19;52.09
69208;SHT31;70114;47.690;8.898;2023-05-29T01:36:27;15.16;51.80
69208;SHT31;70114;47.690;8.898;2023-05-29T01:38:55;14.98;52.16
69208;SHT31;70114;47.690;8.898;2023-05-29T01:41:22;14.76;52.97
69208;SHT31;70114;47.690;8.898;2023-05-29T01:43:49;14.78;53.27
69208;SHT31;70114;47.690;8.898;2023-05-29T01:46:16;14.57;53.72
69208;SHT31;70114;47.690;8.898;2023-05-29T01:48:42;14.74;52.86
69208;SHT31;70114;47.690;8.898;2023-05-29T01:51:08;14.54;54.12
69208;SHT31;70114;47.690;8.898;2023-05-29T01:53:34;14.49;54.34
69208;SHT31;70114;47.690;8.898;2023-05-29T01:55:59;14.68;53.56
69208;SHT31;70114;47.690;8.898;2023-05-29T01:58:26;14.65;53.76
69208;SHT31;70114;47.690;8.898;2023-05-29T02:00:53;14.42;54.25
69208;SHT31;70114;47.690;8.898;2023-05-29T02:03:19;14.20;55.10
69208;SHT31;70114;47.690;8.898;2023-05-29T02:05:44;14.27;54.77
69208;SHT31;70114;47.690;8.898;2023-05-29T02:08:09;14.02;55.39
69208;SHT31;70114;47.690;8.898;2023-05-29T02:10:35;13.99;55.43
69208;SHT31;70114;47.690;8.898;2023-05-29T02:13:00;14.10;55.11
69208;SHT31;70114;47.690;8.898;2023-05-29T02:15:26;14.10;55.05
69208;SHT31;70114;47.690;8.898;2023-05-29T02:17:51;14.16;54.99
69208;SHT31;70114;47.690;8.898;2023-05-29T02:20:17;14.21;54.96
69208;SHT31;70114;47.690;8.898;2023-05-29T02:22:43;14.18;54.73
69208;SHT31;70114;47.690;8.898;2023-05-29T02:25:08;14.20;55.28
69208;SHT31;70114;47.690;8.898;2023-05-29T02:27:34;14.23;55.02
69208;SHT31;70114;47.690;8.898;2023-05-29T02:29:59;14.00;56.37
69208;SHT31;70114;47.690;8.898;2023-05-29T02:32:24;13.99;55.72
69208;SHT31;70114;47.690;8.898;2023-05-29T02:34:53;14.02;55.58
69208;SHT31;70114;47.690;8.898;2023-05-29T02:37:18;14.00;55.51
69208;SHT31;70114;47.690;8.898;2023-05-29T02:39:43;13.70;56.80
69208;SHT31;70114;47.690;8.898;2023-05-29T02:42:09;13.89;56.37
69208;SHT31;70114;47.690;8.898;2023-05-29T02:44:34;13.96;56.22
69208;SHT31;70114;47.690;8.898;2023-05-29T02:47:00;13.93;56.43
69208;SHT31;70114;47.690;8.898;2023-05-29T02:49:25;13.78;57.16
69208;SHT31;70114;47.690;8.898;2023-05-29T02:51:51;13.95;56.44
69208;SHT31;70114;47.690;8.898;2023-05-29T02:54:21;13.96;56.50
69208;SHT31;70114;47.690;8.898;2023-05-29T02:56:47;14.03;56.37
69208;SHT31;70114;47.690;8.898;2023-05-29T02:59:12;14.02;56.58
69208;SHT31;70114;47.690;8.898;2023-05-29T03:01:38;14.05;56.54
69208;SHT31;70114;47.690;8.898;2023-05-29T03:04:03;14.00;56.80
69208;SHT31;70114;47.690;8.898;2023-05-29T03:06:28;14.05;56.39
69208;SHT31;70114;47.690;8.898;2023-05-29T03:08:54;14.02;56.91
69208;SHT31;70114;47.690;8.898;2023-05-29T03:11:19;13.96;57.02
69208;SHT31;70114;47.690;8.898;2023-05-29T03:13:48;13.80;57.15
69208;SHT31;70114;47.690;8.898;2023-05-29T03:16:14;13.89;56.79
69208;SHT31;70114;47.690;8.898;2023-05-29T03:18:39;13.95;56.53
69208;SHT31;70114;47.690;8.898;2023-05-29T03:21:06;13.90;56.87
69208;SHT31;70114;47.690;8.898;2023-05-29T03:23:32;13.95;56.77
69208;SHT31;70114;47.690;8.898;2023-05-29T03:25:58;13.95;56.93
69208;SHT31;70114;47.690;8.898;2023-05-29T03:28:23;13.97;57.19
69208;SHT31;70114;47.690;8.898;2023-05-29T03:30:49;13.95;56.93
69208;SHT31;70114;47.690;8.898;2023-05-29T03:33:14;13.97;56.46
69208;SHT31;70114;47.690;8.898;2023-05-29T03:35:40;13.97;55.98
69208;SHT31;70114;47.690;8.898;2023-05-29T03:38:05;13.97;56.97
69208;SHT31;70114;47.690;8.898;2023-05-29T03:40:30;13.97;56.82
69208;SHT31;70114;47.690;8.898;2023-05-29T03:42:56;13.96;56.90
69208;SHT31;70114;47.690;8.898;2023-05-29T03:45:21;13.99;56.82
69208;SHT31;70114;47.690;8.898;2023-05-29T03:47:46;13.97;57.05
69208;SHT31;70114;47.690;8.898;2023-05-29T03:50:12;13.99;56.84
69208;SHT31;70114;47.690;8.898;2023-05-29T03:52:41;14.06;55.64
69208;SHT31;70114;47.690;8.898;2023-05-29T03:55:09;14.07;56.41
69208;SHT31;70114;47.690;8.898;2023-05-29T03:57:40;14.13;56.41
69208;SHT31;70114;47.690;8.898;2023-05-29T04:00:10;14.14;56.26
69208;SHT31;70114;47.690;8.898;2023-05-29T04:02:40;14.17;56.21
69208;SHT31;70114;47.690;8.898;2023-05-29T04:05:07;14.26;55.05
69208;SHT31;70114;47.690;8.898;2023-05-29T04:07:36;14.23;54.30
69208;SHT31;70114;47.690;8.898;2023-05-29T04:10:05;14.26;53.94
69208;SHT31;70114;47.690;8.898;2023-05-29T04:12:32;14.38;54.34
69208;SHT31;70114;47.690;8.898;2023-05-29T04:14:58;14.45;55.33
69208;SHT31;70114;47.690;8.898;2023-05-29T04:17:23;14.49;55.28
69208;SHT31;70114;47.690;8.898;2023-05-29T04:19:48;14.58;55.27
69208;SHT31;70114;47.690;8.898;2023-05-29T04:22:14;14.69;54.84
69208;SHT31;70114;47.690;8.898;2023-05-29T04:24:40;14.64;55.03
69208;SHT31;70114;47.690;8.898;2023-05-29T04:27:07;14.69;54.73
69208;SHT31;70114;47.690;8.898;2023-05-29T04:29:34;14.75;54.77
69208;SHT31;70114;47.690;8.898;2023-05-29T04:32:00;14.78;54.39
69208;SHT31;70114;47.690;8.898;2023-05-29T04:34:29;14.85;53.88
69208;SHT31;70114;47.690;8.898;2023-05-29T04:36:58;14.93;53.12
69208;SHT31;70114;47.690;8.898;2023-05-29T04:39:24;14.98;53.51
69208;SHT31;70114;47.690;8.898;2023-05-29T04:41:50;15.00;53.03
69208;SHT31;70114;47.690;8.898;2023-05-29T04:44:17;15.19;53.03
69208;SHT31;70114;47.690;8.898;2023-05-29T04:46:42;15.27;52.87
69208;SHT31;70114;47.690;8.898;2023-05-29T04:49:12;15.20;52.95
69208;SHT31;70114;47.690;8.898;2023-05-29T04:51:38;15.34;52.88
69208;SHT31;70114;47.690;8.898;2023-05-29T04:54:06;15.39;52.39
69208;SHT31;70114;47.690;8.898;2023-05-29T04:56:32;15.34;51.97
69208;SHT31;70114;47.690;8.898;2023-05-29T04:58:57;15.47;52.31
69208;SHT31;70114;47.690;8.898;2023-05-29T05:01:23;15.53;51.55
69208;SHT31;70114;47.690;8.898;2023-05-29T05:03:49;15.60;51.80
69208;SHT31;70114;47.690;8.898;2023-05-29T05:06:15;15.67;51.71
69208;SHT31;70114;47.690;8.898;2023-05-29T05:08:42;15.61;51.89
69208;SHT31;70114;47.690;8.898;2023-05-29T05:11:07;15.75;51.65
69208;SHT31;70114;47.690;8.898;2023-05-29T05:13:33;15.79;51.49
69208;SHT31;70114;47.690;8.898;2023-05-29T05:15:58;15.84;51.10
69208;SHT31;70114;47.690;8.898;2023-05-29T05:18:24;15.89;51.77
69208;SHT31;70114;47.690;8.898;2023-05-29T05:20:49;16.15;51.19
69208;SHT31;70114;47.690;8.898;2023-05-29T05:23:15;16.18;50.92
69208;SHT31;70114;47.690;8.898;2023-05-29T05:25:40;16.33;50.64
69208;SHT31;70114;47.690;8.898;2023-05-29T05:28:06;16.34;50.79
69208;SHT31;70114;47.690;8.898;2023-05-29T05:30:31;16.45;51.21
69208;SHT31;70114;47.690;8.898;2023-05-29T05:32:57;16.32;50.80
69208;SHT31;70114;47.690;8.898;2023-05-29T05:35:23;16.36;50.90
69208;SHT31;70114;47.690;8.898;2023-05-29T05:37:48;16.29;50.93
69208;SHT31;70114;47.690;8.898;2023-05-29T05:40:14;16.57;50.23
69208;SHT31;70114;47.690;8.898;2023-05-29T05:42:39;16.66;50.75
69208;SHT31;70114;47.690;8.898;2023-05-29T05:45:05;16.59;50.74
69208;SHT31;70114;47.690;8.898;2023-05-29T05:47:34;16.40;50.81
69208;SHT31;70114;47.690;8.898;2023-05-29T05:50:00;16.73;51.03
69208;SHT31;70114;47.690;8.898;2023-05-29T05:52:25;16.68;50.19
69208;SHT31;70114;47.690;8.898;2023-05-29T05:54:55;16.83;50.21
69208;SHT31;70114;47.690;8.898;2023-05-29T05:57:20;16.80;49.87
69208;SHT31;70114;47.690;8.898;2023-05-29T05:59:46;16.92;50.36
69208;SHT31;70114;47.690;8.898;2023-05-29T06:02:11;16.85;50.24
69208;SHT31;70114;47.690;8.898;2023-05-29T06:04:37;16.85;50.91
69208;SHT31;70114;47.690;8.898;2023-05-29T06:07:02;17.01;50.63
69208;SHT31;70114;47.690;8.898;2023-05-29T06:09:27;17.02;50.46
69208;SHT31;70114;47.690;8.898;2023-05-29T06:11:53;16.92;51.13
69208;SHT31;70114;47.690;8.898;2023-05-29T06:14:18;17.05;50.37
69208;SHT31;70114;47.690;8.898;2023-05-29T06:16:44;17.21;50.26
69208;SHT31;70114;47.690;8.898;2023-05-29T06:19:09;17.26;50.61
69208;SHT31;70114;47.690;8.898;2023-05-29T06:21:35;17.39;50.65
69208;SHT31;70114;47.690;8.898;2023-05-29T06:24:00;17.52;50.52
69208;SHT31;70114;47.690;8.898;2023-05-29T06:26:26;17.60;50.74
69208;SHT31;70114;47.690;8.898;2023-05-29T06:28:52;17.52;50.83
69208;SHT31;70114;47.690;8.898;2023-05-29T06:31:17;17.54;50.50
69208;SHT31;70114;47.690;8.898;2023-05-29T06:33:44;17.56;50.12
69208;SHT31;70114;47.690;8.898;2023-05-29T06:36:09;17.02;51.61
69208;SHT31;70114;47.690;8.898;2023-05-29T06:38:36;17.25;51.10
69208;SHT31;70114;47.690;8.898;2023-05-29T06:41:01;17.46;51.10
69208;SHT31;70114;47.690;8.898;2023-05-29T06:43:27;17.07;51.88
69208;SHT31;70114;47.690;8.898;2023-05-29T06:45:53;17.32;51.68
69208;SHT31;70114;47.690;8.898;2023-05-29T06:48:18;17.66;51.20
69208;SHT31;70114;47.690;8.898;2023-05-29T06:50:44;17.21;51.67
69208;SHT31;70114;47.690;8.898;2023-05-29T06:53:09;17.07;52.52
69208;SHT31;70114;47.690;8.898;2023-05-29T06:55:37;17.45;51.00
69208;SHT31;70114;47.690;8.898;2023-05-29T06:58:02;17.40;51.18
69208;SHT31;70114;47.690;8.898;2023-05-29T07:00:28;17.49;52.16
69208;SHT31;70114;47.690;8.898;2023-05-29T07:02:53;17.69;51.51
69208;SHT31;70114;47.690;8.898;2023-05-29T07:05:19;18.05;51.01
69208;SHT31;70114;47.690;8.898;2023-05-29T07:07:44;17.88;50.24
69208;SHT31;70114;47.690;8.898;2023-05-29T07:10:10;18.09;50.18
69208;SHT31;70114;47.690;8.898;2023-05-29T07:12:35;18.45;50.38
69208;SHT31;70114;47.690;8.898;2023-05-29T07:15:01;18.35;49.33
69208;SHT31;70114;47.690;8.898;2023-05-29T07:17:26;18.38;50.07
69208;SHT31;70114;47.690;8.898;2023-05-29T07:19:51;18.35;49.50
69208;SHT31;70114;47.690;8.898;2023-05-29T07:22:18;18.62;49.05
69208;SHT31;70114;47.690;8.898;2023-05-29T07:24:45;18.76;47.81
69208;SHT31;70114;47.690;8.898;2023-05-29T07:27:10;18.67;46.62
69208;SHT31;70114;47.690;8.898;2023-05-29T07:29:36;18.97;49.03
69208;SHT31;70114;47.690;8.898;2023-05-29T07:32:13;18.96;47.11
69208;SHT31;70114;47.690;8.898;2023-05-29T07:34:39;18.92;46.31
69208;SHT31;70114;47.690;8.898;2023-05-29T07:37:05;19.10;46.43
69208;SHT31;70114;47.690;8.898;2023-05-29T07:39:32;19.06;48.63
69208;SHT31;70114;47.690;8.898;2023-05-29T07:41:59;19.04;48.70
69208;SHT31;70114;47.690;8.898;2023-05-29T07:44:26;19.22;47.23
69208;SHT31;70114;47.690;8.898;2023-05-29T07:46:51;19.51;46.15
69208;SHT31;70114;47.690;8.898;2023-05-29T07:49:16;19.47;46.73
69208;SHT31;70114;47.690;8.898;2023-05-29T07:51:42;19.59;46.85
69208;SHT31;70114;47.690;8.898;2023-05-29T07:54:07;19.79;47.23
69208;SHT31;70114;47.690;8.898;2023-05-29T07:56:33;19.78;46.92
69208;SHT31;70114;47.690;8.898;2023-05-29T07:58:59;19.80;45.88
69208;SHT31;70114;47.690;8.898;2023-05-29T08:01:25;20.01;46.32
69208;SHT31;70114;47.690;8.898;2023-05-29T08:03:51;20.20;45.93
69208;SHT31;70114;47.690;8.898;2023-05-29T08:06:16;20.21;45.23
69208;SHT31;70114;47.690;8.898;2023-05-29T08:08:42;20.45;44.78
69208;SHT31;70114;47.690;8.898;2023-05-29T08:11:08;20.40;45.41
69208;SHT31;70114;47.690;8.898;2023-05-29T08:13:34;20.74;46.56
69208;SHT31;70114;47.690;8.898;2023-05-29T08:15:59;20.74;45.35
69208;SHT31;70114;47.690;8.898;2023-05-29T08:18:26;20.96;44.84
69208;SHT31;70114;47.690;8.898;2023-05-29T08:20:52;21.18;45.71
69208;SHT31;70114;47.690;8.898;2023-05-29T08:23:18;21.24;44.40
69208;SHT31;70114;47.690;8.898;2023-05-29T08:25:43;20.95;44.12
69208;SHT31;70114;47.690;8.898;2023-05-29T08:28:09;21.00;44.29
69208;SHT31;70114;47.690;8.898;2023-05-29T08:30:34;20.98;44.36
69208;SHT31;70114;47.690;8.898;2023-05-29T08:33:00;21.12;45.09
69208;SHT31;70114;47.690;8.898;2023-05-29T08:35:25;21.22;45.13
69208;SHT31;70114;47.690;8.898;2023-05-29T08:37:51;21.39;44.58
69208;SHT31;70114;47.690;8.898;2023-05-29T08:40:16;21.49;45.28
69208;SHT31;70114;47.690;8.898;2023-05-29T08:42:47;21.74;44.10
69208;SHT31;70114;47.690;8.898;2023-05-29T08:45:15;21.74;44.06
69208;SHT31;70114;47.690;8.898;2023-05-29T08:47:41;21.79;44.19
69208;SHT31;70114;47.690;8.898;2023-05-29T08:50:07;21.84;43.17
69208;SHT31;70114;47.690;8.898;2023-05-29T08:52:34;21.78;43.93
69208;SHT31;70114;47.690;8.898;2023-05-29T08:55:01;21.75;46.08
69208;SHT31;70114;47.690;8.898;2023-05-29T08:57:29;21.67;44.64
69208;SHT31;70114;47.690;8.898;2023-05-29T08:59:55;21.67;44.78
69208;SHT31;70114;47.690;8.898;2023-05-29T09:02:21;21.92;43.80
69208;SHT31;70114;47.690;8.898;2023-05-29T09:04:47;22.12;44.10
69208;SHT31;70114;47.690;8.898;2023-05-29T09:07:18;22.06;43.57
69208;SHT31;70114;47.690;8.898;2023-05-29T09:09:47;22.18;43.99
69208;SHT31;70114;47.690;8.898;2023-05-29T09:12:13;22.20;44.10
69208;SHT31;70114;47.690;8.898;2023-05-29T09:14:41;22.30;44.06
69208;SHT31;70114;47.690;8.898;2023-05-29T09:17:09;22.23;43.88
69208;SHT31;70114;47.690;8.898;2023-05-29T09:19:35;22.04;42.16
69208;SHT31;70114;47.690;8.898;2023-05-29T09:22:06;21.97;43.20
69208;SHT31;70114;47.690;8.898;2023-05-29T09:24:33;21.89;43.11
69208;SHT31;70114;47.690;8.898;2023-05-29T09:27:00;21.89;41.95
69208;SHT31;70114;47.690;8.898;2023-05-29T09:29:47;22.42;41.42
69208;SHT31;70114;47.690;8.898;2023-05-29T09:32:14;22.71;41.16
69208;SHT31;70114;47.690;8.898;2023-05-29T09:34:41;22.75;40.43
69208;SHT31;70114;47.690;8.898;2023-05-29T09:37:08;22.91;41.22
69208;SHT31;70114;47.690;8.898;2023-05-29T09:39:49;23.28;41.78
69208;SHT31;70114;47.690;8.898;2023-05-29T09:42:17;23.56;41.19
69208;SHT31;70114;47.690;8.898;2023-05-29T09:44:50;23.59;39.19
69208;SHT31;70114;47.690;8.898;2023-05-29T09:47:21;23.58;40.85
69208;SHT31;70114;47.690;8.898;2023-05-29T09:49:46;23.70;39.11
69208;SHT31;70114;47.690;8.898;2023-05-29T09:52:13;23.58;37.74
69208;SHT31;70114;47.690;8.898;2023-05-29T09:54:42;23.53;38.70
69208;SHT31;70114;47.690;8.898;2023-05-29T09:57:12;23.69;36.26
69208;SHT31;70114;47.690;8.898;2023-05-29T09:59:39;23.65;36.61
69208;SHT31;70114;47.690;8.898;2023-05-29T10:02:06;23.38;36.97
69208;SHT31;70114;47.690;8.898;2023-05-29T10:04:36;23.92;38.57
69208;SHT31;70114;47.690;8.898;2023-05-29T10:07:06;23.71;38.27
69208;SHT31;70114;47.690;8.898;2023-05-29T10:09:34;24.15;35.95
69208;SHT31;70114;47.690;8.898;2023-05-29T10:12:01;24.41;36.45
69208;SHT31;70114;47.690;8.898;2023-05-29T10:14:30;24.42;35.60
69208;SHT31;70114;47.690;8.898;2023-05-29T10:16:58;24.62;35.07
69208;SHT31;70114;47.690;8.898;2023-05-29T10:19:29;24.28;34.48
69208;SHT31;70114;47.690;8.898;2023-05-29T10:21:54;24.25;35.38
69208;SHT31;70114;47.690;8.898;2023-05-29T10:24:21;24.39;33.27
69208;SHT31;70114;47.690;8.898;2023-05-29T10:26:49;24.32;33.54
69208;SHT31;70114;47.690;8.898;2023-05-29T10:37:50;24.14;33.31
69208;SHT31;70114;47.690;8.898;2023-05-29T10:40:23;24.65;34.80
69208;SHT31;70114;47.690;8.898;2023-05-29T10:42:50;24.86;34.20
69208;SHT31;70114;47.690;8.898;2023-05-29T10:50:46;24.61;32.81
69208;SHT31;70114;47.690;8.898;2023-05-29T10:53:16;24.42;33.66
69208;SHT31;70114;47.690;8.898;2023-05-29T10:55:44;23.77;35.47
69208;SHT31;70114;47.690;8.898;2023-05-29T10:58:17;24.15;34.97
69208;SHT31;70114;47.690;8.898;2023-05-29T11:00:44;24.73;36.00
69208;SHT31;70114;47.690;8.898;2023-05-29T11:03:14;25.00;35.47
69208;SHT31;70114;47.690;8.898;2023-05-29T11:06:04;25.04;33.17
69208;SHT31;70114;47.690;8.898;2023-05-29T11:08:47;25.23;34.24
69208;SHT31;70114;47.690;8.898;2023-05-29T11:11:37;24.71;34.19
69208;SHT31;70114;47.690;8.898;2023-05-29T11:14:06;25.14;32.59
69208;SHT31;70114;47.690;8.898;2023-05-29T11:18:58;25.41;33.22
69208;SHT31;70114;47.690;8.898;2023-05-29T11:21:29;25.58;33.67
69208;SHT31;70114;47.690;8.898;2023-05-29T11:24:00;25.44;31.28
69208;SHT31;70114;47.690;8.898;2023-05-29T11:26:33;24.87;33.11
69208;SHT31;70114;47.690;8.898;2023-05-29T11:29:00;25.30;33.60
69208;SHT31;70114;47.690;8.898;2023-05-29T11:31:27;25.79;33.71
69208;SHT31;70114;47.690;8.898;2023-05-29T11:33:54;25.41;32.58
69208;SHT31;70114;47.690;8.898;2023-05-29T11:36:23;25.68;33.28
69208;SHT31;70114;47.690;8.898;2023-05-29T11:38:51;25.26;33.06
69208;SHT31;70114;47.690;8.898;2023-05-29T11:41:17;24.80;31.98
69208;SHT31;70114;47.690;8.898;2023-05-29T11:43:42;25.04;35.05
69208;SHT31;70114;47.690;8.898;2023-05-29T11:46:18;25.20;35.67
69208;SHT31;70114;47.690;8.898;2023-05-29T11:48:47;25.03;35.55
69208;SHT31;70114;47.690;8.898;2023-05-29T11:51:13;25.64;34.32
69208;SHT31;70114;47.690;8.898;2023-05-29T11:53:42;26.09;33.92
69208;SHT31;70114;47.690;8.898;2023-05-29T11:56:11;25.92;33.33
69208;SHT31;70114;47.690;8.898;2023-05-29T11:58:37;25.88;32.54
69208;SHT31;70114;47.690;8.898;2023-05-29T12:01:04;25.96;32.19
69208;SHT31;70114;47.690;8.898;2023-05-29T12:03:30;25.96;33.73
69208;SHT31;70114;47.690;8.898;2023-05-29T12:05:55;26.50;31.40
69208;SHT31;70114;47.690;8.898;2023-05-29T12:08:22;26.82;31.78
69208;SHT31;70114;47.690;8.898;2023-05-29T12:10:49;26.55;29.39
69208;SHT31;70114;47.690;8.898;2023-05-29T12:13:15;26.10;31.52
69208;SHT31;70114;47.690;8.898;2023-05-29T12:15:43;26.37;32.34
69208;SHT31;70114;47.690;8.898;2023-05-29T12:18:09;26.77;31.60
69208;SHT31;70114;47.690;8.898;2023-05-29T12:20:35;26.09;32.00
69208;SHT31;70114;47.690;8.898;2023-05-29T12:23:01;25.75;32.13
69208;SHT31;70114;47.690;8.898;2023-05-29T12:25:27;26.32;31.61
69208;SHT31;70114;47.690;8.898;2023-05-29T12:27:55;26.84;32.58
69208;SHT31;70114;47.690;8.898;2023-05-29T12:30:21;27.18;29.96
69208;SHT31;70114;47.690;8.898;2023-05-29T12:32:49;27.38;29.24
69208;SHT31;70114;47.690;8.898;2023-05-29T12:35:22;27.68;28.41
69208;SHT31;70114;47.690;8.898;2023-05-29T12:38:04;26.84;29.48
69208;SHT31;70114;47.690;8.898;2023-05-29T12:40:31;27.20;29.59
69208;SHT31;70114;47.690;8.898;2023-05-29T12:45:25;26.91;30.30
69208;SHT31;70114;47.690;8.898;2023-05-29T12:47:59;27.13;31.28
69208;SHT31;70114;47.690;8.898;2023-05-29T12:50:32;27.76;28.52
69208;SHT31;70114;47.690;8.898;2023-05-29T12:53:01;27.98;28.23
69208;SHT31;70114;47.690;8.898;2023-05-29T12:55:28;27.45;29.57
69208;SHT31;70114;47.690;8.898;2023-05-29T12:57:55;28.01;27.69
69208;SHT31;70114;47.690;8.898;2023-05-29T13:00:21;27.71;30.05
69208;SHT31;70114;47.690;8.898;2023-05-29T13:02:47;28.29;27.62
69208;SHT31;70114;47.690;8.898;2023-05-29T13:05:13;27.63;29.06
69208;SHT31;70114;47.690;8.898;2023-05-29T13:07:41;27.28;29.38
69208;SHT31;70114;47.690;8.898;2023-05-29T13:10:06;26.87;29.43
69208;SHT31;70114;47.690;8.898;2023-05-29T13:12:32;27.10;31.01
69208;SHT31;70114;47.690;8.898;2023-05-29T13:14:58;27.74;29.32
69208;SHT31;70114;47.690;8.898;2023-05-29T13:17:23;28.16;29.08
69208;SHT31;70114;47.690;8.898;2023-05-29T13:19:49;28.36;28.34
69208;SHT31;70114;47.690;8.898;2023-05-29T13:22:14;28.72;28.87
69208;SHT31;70114;47.690;8.898;2023-05-29T13:24:40;29.03;29.78
69208;SHT31;70114;47.690;8.898;2023-05-29T13:27:06;27.13;30.61
69208;SHT31;70114;47.690;8.898;2023-05-29T13:29:32;28.24;29.06
69208;SHT31;70114;47.690;8.898;2023-05-29T13:31:57;28.83;28.02
69208;SHT31;70114;47.690;8.898;2023-05-29T13:34:22;28.45;27.76
69208;SHT31;70114;47.690;8.898;2023-05-29T13:36:53;28.91;27.61
69208;SHT31;70114;47.690;8.898;2023-05-29T13:39:19;28.39;28.47
69208;SHT31;70114;47.690;8.898;2023-05-29T13:41:44;28.22;27.59
69208;SHT31;70114;47.690;8.898;2023-05-29T13:44:09;28.22;27.61
69208;SHT31;70114;47.690;8.898;2023-05-29T13:46:37;28.41;27.53
69208;SHT31;70114;47.690;8.898;2023-05-29T13:49:02;28.15;30.69
69208;SHT31;70114;47.690;8.898;2023-05-29T13:51:27;28.60;27.63
69208;SHT31;70114;47.690;8.898;2023-05-29T13:53:53;28.76;27.91
69208;SHT31;70114;47.690;8.898;2023-05-29T13:56:18;29.07;27.12
69208;SHT31;70114;47.690;8.898;2023-05-29T13:58:44;29.44;27.26
69208;SHT31;70114;47.690;8.898;2023-05-29T14:01:09;29.77;26.35
69208;SHT31;70114;47.690;8.898;2023-05-29T14:03:34;30.07;26.49
69208;SHT31;70114;47.690;8.898;2023-05-29T14:06:01;30.06;25.02
69208;SHT31;70114;47.690;8.898;2023-05-29T14:08:28;30.02;26.25
69208;SHT31;70114;47.690;8.898;2023-05-29T14:10:53;30.24;26.08
69208;SHT31;70114;47.690;8.898;2023-05-29T14:13:18;30.20;25.48
69208;SHT31;70114;47.690;8.898;2023-05-29T14:15:44;30.64;25.82
69208;SHT31;70114;47.690;8.898;2023-05-29T14:18:09;29.25;26.02
69208;SHT31;70114;47.690;8.898;2023-05-29T14:20:35;29.75;26.67
69208;SHT31;70114;47.690;8.898;2023-05-29T14:23:00;29.66;26.69
69208;SHT31;70114;47.690;8.898;2023-05-29T14:25:25;29.54;26.20
69208;SHT31;70114;47.690;8.898;2023-05-29T14:27:51;29.61;25.92
69208;SHT31;70114;47.690;8.898;2023-05-29T14:30:17;29.06;25.44
69208;SHT31;70114;47.690;8.898;2023-05-29T14:32:43;29.21;25.90
69208;SHT31;70114;47.690;8.898;2023-05-29T14:35:09;28.73;26.40
69208;SHT31;70114;47.690;8.898;2023-05-29T14:37:34;29.61;25.58
69208;SHT31;70114;47.690;8.898;2023-05-29T14:40:00;30.10;26.46
69208;SHT31;70114;47.690;8.898;2023-05-29T14:42:26;30.61;25.11
69208;SHT31;70114;47.690;8.898;2023-05-29T14:44:51;31.00;24.51
69208;SHT31;70114;47.690;8.898;2023-05-29T14:47:16;31.12;24.62
69208;SHT31;70114;47.690;8.898;2023-05-29T14:49:44;30.10;25.78
69208;SHT31;70114;47.690;8.898;2023-05-29T14:52:09;30.25;26.45
69208;SHT31;70114;47.690;8.898;2023-05-29T14:54:35;31.08;23.80
69208;SHT31;70114;47.690;8.898;2023-05-29T14:57:00;31.25;23.35
69208;SHT31;70114;47.690;8.898;2023-05-29T14:59:26;31.40;23.03
69208;SHT31;70114;47.690;8.898;2023-05-29T15:01:51;30.55;24.56
69208;SHT31;70114;47.690;8.898;2023-05-29T15:04:18;30.98;22.82
69208;SHT31;70114;47.690;8.898;2023-05-29T15:06:44;31.70;22.96
69208;SHT31;70114;47.690;8.898;2023-05-29T15:09:10;30.09;24.66
69208;SHT31;70114;47.690;8.898;2023-05-29T15:11:35;30.78;24.58
69208;SHT31;70114;47.690;8.898;2023-05-29T15:14:01;31.09;23.85
69208;SHT31;70114;47.690;8.898;2023-05-29T15:16:26;31.37;22.64
69208;SHT31;70114;47.690;8.898;2023-05-29T15:18:52;31.22;22.74
69208;SHT31;70114;47.690;8.898;2023-05-29T15:21:17;31.91;22.34
69208;SHT31;70114;47.690;8.898;2023-05-29T15:23:43;32.18;22.39
69208;SHT31;70114;47.690;8.898;2023-05-29T15:26:09;30.96;24.18
69208;SHT31;70114;47.690;8.898;2023-05-29T15:28:35;31.48;23.50
69208;SHT31;70114;47.690;8.898;2023-05-29T15:31:00;31.68;22.32
69208;SHT31;70114;47.690;8.898;2023-05-29T15:33:26;30.79;23.67
69208;SHT31;70114;47.690;8.898;2023-05-29T15:35:51;30.57;23.41
69208;SHT31;70114;47.690;8.898;2023-05-29T15:38:17;31.03;23.17
69208;SHT31;70114;47.690;8.898;2023-05-29T15:40:42;31.15;23.23
69208;SHT31;70114;47.690;8.898;2023-05-29T15:43:11;31.48;21.89
69208;SHT31;70114;47.690;8.898;2023-05-29T15:45:37;30.78;22.96
69208;SHT31;70114;47.690;8.898;2023-05-29T15:48:03;31.56;22.57
69208;SHT31;70114;47.690;8.898;2023-05-29T15:50:28;31.57;22.74
69208;SHT31;70114;47.690;8.898;2023-05-29T15:52:54;32.12;21.81
69208;SHT31;70114;47.690;8.898;2023-05-29T15:55:19;31.25;22.67